Time;durP1;ratioP1;P1;durP2;ratioP2;P2;SDS_P1;SDS_P2;PMS_P1;PMS_P2;Temp;Humidity;BMP_temperature;BMP_pressure;BME280_temperature;BME280_humidity;BME280_pressure;Samples;Min_cycle;Max_cycle;Signal;HPM_P1;HPM_P2
2022/04/03 00:08:28;;;;;;;2.53;0.40;;;6.00;44.80;;;;;;20911102;28;20455;-59
2022/04/03 00:18:30;;;;;;;3.20;0.60;;;5.80;45.10;;;;;;20910915;28;20059;-58
2022/04/03 00:28:32;;;;;;;2.15;0.30;;;5.80;45.40;;;;;;20910806;28;20060;-59
2022/04/03 00:38:34;;;;;;;1.43;0.50;;;5.70;45.80;;;;;;20905387;28;20427;-59
2022/04/03 00:48:37;;;;;;;4.13;1.00;;;6.90;45.00;;;;;;20917394;28;20091;-60
2022/04/03 00:58:39;;;;;;;3.72;0.40;;;5.70;46.60;;;;;;20923720;28;20052;-62
2022/04/03 01:08:42;;;;;;;1.75;0.50;;;;;;;;;;20922766;28;20053;-58
2022/04/03 01:18:43;;;;;;;2.20;0.50;;;;;;;;;;20923156;28;20485;-60
2022/04/03 01:28:45;;;;;;;2.33;0.50;;;6.50;44.90;;;;;;20921624;28;20489;-61
2022/04/03 01:38:46;;;;;;;1.15;0.60;;;5.50;47.60;;;;;;20920667;28;20095;-56
2022/04/03 01:48:51;;;;;;;2.60;0.60;;;;;;;;;;20921195;28;20057;-59
2022/04/03 01:58:54;;;;;;;2.25;0.55;;;6.60;45.70;;;;;;20919078;28;20052;-57
2022/04/03 02:09:02;;;;;;;0.70;0.47;;;5.90;47.40;;;;;;20918315;28;20049;-58
2022/04/03 02:19:15;;;;;;;0.73;0.50;;;5.20;48.60;;;;;;20918995;28;20053;-57
2022/04/03 02:29:22;;;;;;;1.48;0.75;;;4.90;49.40;;;;;;20916925;28;20056;-57
2022/04/03 02:39:26;;;;;;;1.00;0.50;;;4.90;49.80;;;;;;20916584;28;20405;-59
2022/04/03 02:49:31;;;;;;;1.50;0.70;;;5.70;48.60;;;;;;20915414;28;20056;-57
2022/04/03 02:59:34;;;;;;;1.08;0.50;;;5.00;49.60;;;;;;20913031;28;20128;-59
2022/04/03 03:09:36;;;;;;;1.52;0.40;;;4.70;50.80;;;;;;20913015;28;20049;-57
2022/04/03 03:19:58;;;;;;;4.07;0.57;;;4.60;50.90;;;;;;20912957;28;20505;-57
2022/04/03 03:30:18;;;;;;;1.75;0.50;;;4.50;51.30;;;;;;20912115;28;20055;-58
2022/04/03 03:40:31;;;;;;;1.42;0.55;;;4.60;51.20;;;;;;20912752;28;20131;-57
2022/04/03 03:50:38;;;;;;;3.08;0.68;;;4.50;51.40;;;;;;20912083;28;20045;-58
2022/04/03 04:00:45;;;;;;;0.85;0.40;;;;;;;;;;20911473;28;20049;-56
2022/04/03 04:10:50;;;;;;;1.85;0.63;;;5.30;49.60;;;;;;20911777;28;20048;-57
2022/04/03 04:20:54;;;;;;;1.45;0.60;;;4.30;51.30;;;;;;20913347;28;22015;-59
2022/04/03 04:30:57;;;;;;;1.58;0.85;;;4.20;51.60;;;;;;20925918;28;20045;-58
2022/04/03 04:41:01;;;;;;;1.45;0.40;;;4.20;52.50;;;;;;20924904;28;20074;-57
2022/04/03 04:51:11;;;;;;;1.50;0.43;;;;;;;;;;20924540;28;20075;-59
2022/04/03 05:01:15;;;;;;;2.95;0.60;;;;;;;;;;20923336;28;20481;-59
2022/04/03 05:11:18;;;;;;;3.60;0.98;;;4.70;52.00;;;;;;20921816;28;20067;-59
2022/04/03 05:21:22;;;;;;;3.50;0.80;;;3.70;54.70;;;;;;20923765;28;20056;-58
2022/04/03 05:31:26;;;;;;;0.77;0.43;;;3.60;55.30;;;;;;20921496;28;20052;-55
2022/04/03 05:41:28;;;;;;;1.65;0.70;;;3.70;55.50;;;;;;20920434;28;20049;-58
2022/04/03 05:51:31;;;;;;;1.23;0.65;;;3.60;55.80;;;;;;20919638;28;20082;-60
2022/04/03 06:01:33;;;;;;;6.72;1.20;;;3.60;56.20;;;;;;20918597;28;20063;-59
2022/04/03 06:11:35;;;;;;;4.07;1.17;;;3.60;55.90;;;;;;20918563;28;20049;-59
2022/04/03 06:21:37;;;;;;;3.97;1.30;;;3.50;56.00;;;;;;20917290;28;20075;-58
2022/04/03 06:31:39;;;;;;;15.65;1.48;;;3.50;56.20;;;;;;20916385;28;20086;-60
2022/04/03 06:41:42;;;;;;;1.55;0.90;;;3.80;55.10;;;;;;20915003;28;20053;-58
2022/04/03 06:51:45;;;;;;;4.53;1.13;;;4.00;54.50;;;;;;20914586;28;20045;-59
2022/04/03 07:01:47;;;;;;;10.63;1.13;;;4.30;55.30;;;;;;20913917;28;20497;-57
2022/04/03 07:11:49;;;;;;;3.10;0.93;;;4.60;54.70;;;;;;20915133;28;20049;-58
2022/04/03 07:21:51;;;;;;;2.35;1.27;;;4.90;53.60;;;;;;20914560;28;20057;-58
2022/04/03 07:31:53;;;;;;;3.85;1.25;;;5.20;52.70;;;;;;20912966;28;20103;-58
2022/04/03 07:41:56;;;;;;;2.60;0.77;;;5.80;51.30;;;;;;20912851;28;20061;-57
2022/04/03 07:51:59;;;;;;;3.45;1.02;;;6.30;49.90;;;;;;20912432;28;20127;-57
2022/04/03 08:02:02;;;;;;;1.45;0.30;;;6.60;49.20;;;;;;20925935;28;20060;-57
2022/04/03 08:12:06;;;;;;;0.63;0.30;;;7.40;47.00;;;;;;20927851;28;20054;-58
2022/04/03 08:22:09;;;;;;;0.73;0.13;;;7.60;46.00;;;;;;20926590;28;20404;-58
2022/04/03 08:32:12;;;;;;;0.40;0.22;;;7.70;45.50;;;;;;20926211;28;20079;-59
2022/04/03 08:42:16;;;;;;;0.85;0.45;;;7.80;45.70;;;;;;20924897;28;20053;-58
2022/04/03 08:52:19;;;;;;;1.33;0.28;;;8.20;44.60;;;;;;20924883;28;20056;-57
2022/04/03 09:02:20;;;;;;;0.55;0.15;;;8.20;44.10;;;;;;20922545;28;20159;-57
2022/04/03 09:12:23;;;;;;;0.40;0.15;;;8.10;44.00;;;;;;20921673;28;20136;-56
2022/04/03 09:22:29;;;;;;;0.73;0.20;;;8.10;43.70;;;;;;20922799;28;20053;-60
2022/04/03 09:32:31;;;;;;;0.80;0.20;;;8.30;43.90;;;;;;20921218;28;20489;-60
2022/04/03 09:42:33;;;;;;;0.45;0.20;;;8.50;44.00;;;;;;20920859;28;20516;-58
2022/04/03 09:52:45;;;;;;;0.20;0.13;;;8.50;44.50;;;;;;20919187;28;20049;-59
2022/04/03 10:02:57;;;;;;;0.73;0.00;;;8.70;44.20;;;;;;20917546;28;20493;-57
2022/04/03 10:13:00;;;;;;;0.50;0.20;;;8.80;44.10;;;;;;20913061;28;20136;-58
2022/04/03 10:23:10;;;;;;;1.55;0.10;;;8.60;44.60;;;;;;20917131;28;20135;-60
2022/04/03 10:33:20;;;;;;;0.45;0.20;;;9.60;42.40;;;;;;20915156;28;20071;-57
2022/04/03 10:43:22;;;;;;;;;;;;;;;;;;20915693;28;20497;-58
2022/04/03 10:53:31;;;;;;;0.10;0.10;;;10.60;39.10;;;;;;20916132;28;20022;-61
2022/04/03 11:03:34;;;;;;;0.10;0.10;;;10.00;40.10;;;;;;20913723;28;20107;-59
2022/04/03 11:13:36;;;;;;;0.68;0.28;;;;;;;;;;20912772;28;20056;-59
2022/04/03 11:23:45;;;;;;;0.20;0.10;;;;;;;;;;20910907;28;20595;-61
2022/04/03 11:33:47;;;;;;;1.13;0.20;;;11.50;36.70;;;;;;20910036;28;20060;-60
2022/04/03 11:44:01;;;;;;;0.80;0.20;;;10.90;37.90;;;;;;20911066;28;20053;-59
2022/04/03 11:54:03;;;;;;;1.20;0.10;;;10.70;38.40;;;;;;20913076;28;20102;-59
2022/04/03 12:04:13;;;;;;;0.60;0.20;;;11.20;37.20;;;;;;20910206;28;20049;-59
2022/04/03 12:14:26;;;;;;;0.38;0.03;;;10.70;37.80;;;;;;20910123;28;20049;-58
2022/04/03 12:24:34;;;;;;;0.40;0.10;;;10.50;37.30;;;;;;20909186;28;20049;-56
2022/04/03 12:34:41;;;;;;;0.30;0.10;;;10.70;37.30;;;;;;20909101;28;20053;-59
2022/04/03 12:44:42;;;;;;;0.20;0.10;;;10.80;36.60;;;;;;20915486;28;20072;-60
2022/04/03 12:54:45;;;;;;;0.30;0.20;;;12.00;34.60;;;;;;20923272;28;20124;-58
2022/04/03 13:04:58;;;;;;;0.05;0.05;;;11.40;35.60;;;;;;20922651;28;20136;-59
2022/04/03 13:15:02;;;;;;;0.45;0.17;;;10.70;35.60;;;;;;20922457;28;20111;-59
2022/04/03 13:25:05;;;;;;;0.73;0.30;;;10.80;34.60;;;;;;20920706;28;20078;-59
2022/04/03 13:35:08;;;;;;;1.23;0.17;;;10.80;34.70;;;;;;20921221;28;20545;-59
2022/04/03 13:45:11;;;;;;;0.70;0.30;;;11.30;34.50;;;;;;20919848;28;20144;-59
2022/04/03 13:55:13;;;;;;;0.25;0.10;;;11.40;34.30;;;;;;20917548;28;20154;-58
2022/04/03 14:05:15;;;;;;;0.50;0.40;;;11.70;33.70;;;;;;20918890;28;20049;-60
2022/04/03 14:15:18;;;;;;;3.38;2.00;;;;;;;;;;20918155;28;20052;-58
2022/04/03 14:25:21;;;;;;;0.32;0.20;;;;;;;;;;20918213;28;20053;-59
2022/04/03 14:35:23;;;;;;;0.55;0.20;;;;;;;;;;20916617;28;20051;-59
2022/04/03 14:45:25;;;;;;;0.70;0.20;;;12.80;30.00;;;;;;20916185;28;20060;-59
2022/04/03 14:55:28;;;;;;;0.75;0.15;;;11.90;31.60;;;;;;20915340;28;20412;-58
2022/04/03 15:05:31;;;;;;;1.85;0.45;;;12.10;31.70;;;;;;20914685;28;20049;-59
2022/04/03 15:15:33;;;;;;;0.63;0.10;;;;;;;;;;20913428;28;20056;-58
2022/04/03 15:25:34;;;;;;;0.60;0.20;;;12.60;29.90;;;;;;20913533;28;20477;-59
2022/04/03 15:35:37;;;;;;;0.10;0.10;;;11.80;30.70;;;;;;20911583;28;20053;-59
2022/04/03 15:45:38;;;;;;;0.20;0.10;;;12.00;30.20;;;;;;20911500;28;20051;-58
2022/04/03 15:55:39;;;;;;;0.40;0.20;;;12.00;29.30;;;;;;20909224;28;20476;-59
2022/04/03 16:05:40;;;;;;;0.20;0.10;;;12.20;29.10;;;;;;20910851;28;20049;-59
2022/04/03 16:15:41;;;;;;;1.05;0.30;;;12.20;28.70;;;;;;20913223;28;20544;-58
2022/04/03 16:25:43;;;;;;;1.15;0.10;;;12.20;28.20;;;;;;20925849;28;20485;-59
2022/04/03 16:35:44;;;;;;;0.60;0.15;;;11.90;28.40;;;;;;20925912;28;20099;-59
2022/04/03 16:45:46;;;;;;;2.00;0.22;;;11.70;28.00;;;;;;20925104;28;20045;-57
2022/04/03 16:55:48;;;;;;;2.10;0.25;;;11.60;28.10;;;;;;20925024;28;20485;-58
2022/04/03 17:05:52;;;;;;;1.08;0.25;;;11.70;27.20;;;;;;20923777;28;20056;-60
2022/04/03 17:15:54;;;;;;;1.42;0.20;;;11.40;27.40;;;;;;20922985;28;20049;-61
2022/04/03 17:25:56;;;;;;;1.98;0.22;;;11.20;26.50;;;;;;20920703;28;20072;-59
2022/04/03 17:35:58;;;;;;;3.60;0.30;;;11.20;26.70;;;;;;20922397;28;20148;-61
2022/04/03 17:46:00;;;;;;;0.50;0.30;;;11.10;26.70;;;;;;20922981;28;20489;-58
2022/04/03 17:56:08;;;;;;;0.65;0.30;;;11.00;27.10;;;;;;20919952;28;20045;-59
2022/04/03 18:06:10;;;;;;;0.50;0.22;;;10.80;27.50;;;;;;20918517;28;20052;-58
2022/04/03 18:16:14;;;;;;;2.55;0.45;;;10.60;28.10;;;;;;20917921;28;20053;-60
2022/04/03 18:26:18;;;;;;;0.73;0.32;;;10.40;28.30;;;;;;20918216;28;20048;-60
2022/04/03 18:36:20;;;;;;;0.80;0.35;;;10.20;28.80;;;;;;20915787;28;20056;-59
2022/04/03 18:46:22;;;;;;;1.08;0.30;;;10.00;29.20;;;;;;20915025;28;20133;-59
2022/04/03 18:56:23;;;;;;;1.63;0.50;;;9.90;29.50;;;;;;20916163;28;20052;-58
2022/04/03 19:06:25;;;;;;;0.35;0.20;;;9.60;29.70;;;;;;20914622;28;20136;-58
2022/04/03 19:16:27;;;;;;;1.48;0.60;;;9.40;29.90;;;;;;20914862;28;20045;-59
2022/04/03 19:26:28;;;;;;;1.45;0.60;;;9.30;30.10;;;;;;20915340;28;20084;-60
2022/04/03 19:36:30;;;;;;;3.88;0.70;;;9.10;29.50;;;;;;20913422;28;20504;-58
2022/04/03 19:46:32;;;;;;;3.10;0.40;;;8.90;29.80;;;;;;20911295;28;20057;-60
2022/04/03 19:56:35;;;;;;;1.13;0.50;;;8.80;30.50;;;;;;20924787;28;20049;-59
2022/04/03 20:06:36;;;;;;;5.05;0.65;;;8.60;31.30;;;;;;20928297;28;20106;-59
2022/04/03 20:16:40;;;;;;;1.88;0.70;;;8.30;32.30;;;;;;20928023;28;20179;-59
2022/04/03 20:26:42;;;;;;;3.95;1.02;;;8.20;32.90;;;;;;20926761;28;20049;-61
2022/04/03 20:36:47;;;;;;;1.77;0.70;;;8.00;33.40;;;;;;20926259;28;20053;-58
2022/04/03 20:46:50;;;;;;;2.63;0.60;;;7.80;34.30;;;;;;20923828;28;20416;-58
2022/04/03 20:56:52;;;;;;;2.97;0.80;;;7.60;34.70;;;;;;20924089;28;20460;-58
2022/04/03 21:06:54;;;;;;;2.78;0.70;;;7.40;35.10;;;;;;20922883;28;20045;-57
2022/04/03 21:16:56;;;;;;;2.08;0.73;;;7.20;35.80;;;;;;20921777;28;20049;-63
2022/04/03 21:26:58;;;;;;;2.67;0.88;;;7.00;36.20;;;;;;20922410;28;20110;-59
2022/04/03 21:37:02;;;;;;;2.55;0.60;;;6.80;36.70;;;;;;20923401;28;20049;-59
2022/04/03 21:47:06;;;;;;;2.97;0.60;;;6.70;37.10;;;;;;20921076;28;20092;-59
2022/04/03 21:57:08;;;;;;;4.80;0.60;;;6.40;37.70;;;;;;20919627;28;20049;-58
2022/04/03 22:07:10;;;;;;;2.58;0.57;;;6.20;37.80;;;;;;20919764;28;20523;-59
2022/04/03 22:17:13;;;;;;;3.55;0.57;;;6.10;38.10;;;;;;20919182;28;20456;-59
2022/04/03 22:27:14;;;;;;;2.85;1.33;;;;;;;;;;20918434;28;20083;-57
2022/04/03 22:37:16;;;;;;;1.30;0.60;;;;;;;;;;20916594;28;20447;-58
2022/04/03 22:47:18;;;;;;;1.00;0.50;;;;;;;;;;20916217;28;20213;-58
2022/04/03 22:57:21;;;;;;;1.30;0.40;;;;;;;;;;20914954;28;20405;-58
2022/04/03 23:07:24;;;;;;;1.48;0.70;;;;;;;;;;20915634;28;20059;-58
2022/04/03 23:17:26;;;;;;;3.75;0.75;;;6.30;37.70;;;;;;20914159;28;20416;-64
2022/04/03 23:27:28;;;;;;;3.53;0.82;;;4.90;40.20;;;;;;20912779;28;20135;-57
2022/04/03 23:37:30;;;;;;;3.20;0.93;;;;;;;;;;20914112;28;20041;-57
2022/04/03 23:47:32;;;;;;;5.00;0.70;;;4.90;41.20;;;;;;20914406;28;20052;-58
2022/04/03 23:57:34;;;;;;;2.05;0.80;;;4.40;41.60;;;;;;20969280;28;20052;-57
